Time;durP1;ratioP1;P1;durP2;ratioP2;P2;SDS_P1;SDS_P2;PMS_P1;PMS_P2;Temp;Humidity;BMP_temperature;BMP_pressure;BME280_temperature;BME280_humidity;BME280_pressure;Samples;Min_cycle;Max_cycle;Signal;HPM_P1;HPM_P2
2022/08/17 00:00:53;;;;;;;5.60;5.27;;;19.80;99.90;;;;;;5051095;28;20826;-54
2022/08/17 00:03:22;;;;;;;4.33;4.03;;;19.90;99.90;;;;;;5051680;28;20198;-53
2022/08/17 00:05:52;;;;;;;4.40;4.20;;;20.00;99.90;;;;;;5052225;28;20647;-53
2022/08/17 00:08:23;;;;;;;4.83;4.73;;;20.00;99.90;;;;;;5051764;28;20225;-53
2022/08/17 00:10:53;;;;;;;6.80;3.93;;;20.00;99.90;;;;;;5052367;28;20634;-53
2022/08/17 00:13:24;;;;;;;5.70;5.27;;;20.00;99.90;;;;;;5050377;28;20802;-53
2022/08/17 00:15:51;;;;;;;5.60;5.27;;;20.00;99.90;;;;;;5051906;28;20231;-53
2022/08/17 00:18:19;;;;;;;4.87;4.57;;;20.00;99.90;;;;;;5051065;28;20201;-54
2022/08/17 00:20:46;;;;;;;4.47;4.17;;;20.00;99.90;;;;;;5052287;28;20218;-53
2022/08/17 00:23:15;;;;;;;5.20;4.97;;;20.00;99.90;;;;;;5051972;28;20201;-53
2022/08/17 00:25:44;;;;;;;4.97;4.77;;;20.00;99.90;;;;;;5050357;28;20202;-53
2022/08/17 00:28:14;;;;;;;5.13;4.83;;;20.00;99.90;;;;;;5044342;28;20713;-53
2022/08/17 00:30:42;;;;;;;4.73;4.53;;;20.00;99.90;;;;;;5051761;28;20610;-53
2022/08/17 00:33:11;;;;;;;5.13;4.70;;;20.00;99.90;;;;;;5051784;28;20263;-53
2022/08/17 00:35:39;;;;;;;4.43;4.17;;;20.00;99.90;;;;;;5051947;28;20267;-53
2022/08/17 00:38:08;;;;;;;5.00;4.70;;;20.00;99.90;;;;;;5050827;28;20198;-53
2022/08/17 00:40:36;;;;;;;5.07;4.77;;;20.00;99.90;;;;;;5050984;28;20218;-53
2022/08/17 00:43:16;;;;;;;4.87;4.67;;;20.00;99.90;;;;;;5050678;28;20285;-54
2022/08/17 00:45:43;;;;;;;5.20;4.67;;;20.00;99.90;;;;;;5051568;28;20195;-53
2022/08/17 00:48:10;;;;;;;5.03;4.83;;;19.90;99.90;;;;;;5049704;28;20317;-53
2022/08/17 00:50:38;;;;;;;5.23;4.80;;;19.90;99.90;;;;;;5049869;28;20268;-53
2022/08/17 00:53:06;;;;;;;6.07;5.53;;;19.90;99.90;;;;;;5046815;28;20197;-54
2022/08/17 00:55:33;;;;;;;6.03;5.40;;;19.80;99.90;;;;;;5050751;28;20256;-53
2022/08/17 00:58:05;;;;;;;5.40;5.20;;;19.70;99.90;;;;;;5051309;28;20186;-54
2022/08/17 01:00:39;;;;;;;5.67;5.17;;;19.70;99.90;;;;;;5049946;28;20256;-53
2022/08/17 01:03:10;;;;;;;6.50;5.90;;;19.60;99.90;;;;;;5043716;28;20671;-53
2022/08/17 01:05:38;;;;;;;5.40;5.10;;;19.60;99.90;;;;;;5051131;28;20205;-53
2022/08/17 01:08:08;;;;;;;5.60;5.40;;;19.50;99.90;;;;;;5050171;28;20222;-54
2022/08/17 01:10:40;;;;;;;6.27;5.87;;;19.50;99.90;;;;;;5048342;28;20226;-53
2022/08/17 01:13:08;;;;;;;6.33;6.03;;;19.40;99.90;;;;;;5031358;28;20227;-53
2022/08/17 01:15:39;;;;;;;6.90;6.50;;;19.40;99.90;;;;;;5050578;28;20209;-54
2022/08/17 01:18:09;;;;;;;6.67;6.37;;;19.30;99.90;;;;;;5031447;28;20206;-53
2022/08/17 01:20:37;;;;;;;5.53;5.27;;;19.30;99.90;;;;;;5037684;28;20218;-53
2022/08/17 01:23:05;;;;;;;6.40;6.10;;;19.20;99.90;;;;;;5050928;28;20252;-53
2022/08/17 01:25:32;;;;;;;5.57;5.27;;;19.20;99.90;;;;;;5049004;28;20264;-53
2022/08/17 01:28:04;;;;;;;6.60;6.17;;;19.30;99.90;;;;;;5050980;28;20213;-54
2022/08/17 01:30:31;;;;;;;6.00;5.57;;;19.30;99.90;;;;;;5051333;28;20221;-53
2022/08/17 01:33:01;;;;;;;5.77;5.47;;;19.30;99.90;;;;;;5051366;28;20626;-54
2022/08/17 01:35:28;;;;;;;5.70;5.17;;;19.40;99.90;;;;;;5050210;28;20194;-53
2022/08/17 01:37:58;;;;;;;5.30;5.00;;;19.40;99.90;;;;;;5051379;28;20251;-53
2022/08/17 01:40:37;;;;;;;5.57;5.07;;;19.40;99.90;;;;;;5050257;28;20225;-53
2022/08/17 01:43:09;;;;;;;5.17;4.97;;;19.60;99.90;;;;;;5042593;28;20220;-53
2022/08/17 01:45:42;;;;;;;5.20;4.80;;;19.60;99.90;;;;;;5051078;28;20198;-53
2022/08/17 01:48:09;;;;;;;4.50;4.30;;;19.50;99.90;;;;;;5049636;28;20217;-53
2022/08/17 01:50:39;;;;;;;5.57;5.27;;;19.50;99.90;;;;;;5046986;28;20222;-53
2022/08/17 01:53:10;;;;;;;5.30;5.10;;;19.60;99.90;;;;;;5050736;28;20202;-53
2022/08/17 01:55:43;;;;;;;6.80;6.43;;;19.60;99.90;;;;;;5050247;28;20656;-53
2022/08/17 01:58:10;;;;;;;5.60;5.33;;;19.60;99.90;;;;;;5051070;28;20194;-53
2022/08/17 02:00:38;;;;;;;5.03;4.83;;;19.50;99.90;;;;;;5050800;28;20229;-53
2022/08/17 02:03:07;;;;;;;5.90;5.37;;;19.50;99.90;;;;;;5048593;28;20568;-54
2022/08/17 02:05:35;;;;;;;6.63;6.33;;;19.50;99.90;;;;;;5051105;28;20202;-53
2022/08/17 02:08:06;;;;;;;6.27;5.80;;;19.50;99.90;;;;;;5050909;28;20228;-53
2022/08/17 02:10:34;;;;;;;4.93;4.73;;;19.50;99.90;;;;;;5047297;28;20308;-53
2022/08/17 02:13:03;;;;;;;6.20;5.80;;;19.40;99.90;;;;;;5050772;28;20202;-54
2022/08/17 02:15:30;;;;;;;5.67;5.23;;;19.40;99.90;;;;;;5049087;28;20194;-53
2022/08/17 02:17:58;;;;;;;6.03;5.67;;;19.50;99.90;;;;;;5049735;28;20252;-53
2022/08/17 02:20:25;;;;;;;6.80;6.33;;;19.50;99.90;;;;;;5050864;28;20232;-53
2022/08/17 02:22:52;;;;;;;6.97;6.60;;;19.40;99.90;;;;;;5050033;28;20609;-54
2022/08/17 02:25:21;;;;;;;7.63;7.20;;;19.40;99.90;;;;;;5051997;28;20189;-53
2022/08/17 02:27:48;;;;;;;7.93;7.43;;;19.40;99.90;;;;;;5053373;28;20275;-53
2022/08/17 02:30:16;;;;;;;7.00;6.43;;;19.20;99.90;;;;;;5053285;28;20229;-53
2022/08/17 02:32:43;;;;;;;6.67;6.33;;;19.20;99.90;;;;;;5049637;28;20675;-53
2022/08/17 02:35:12;;;;;;;6.77;6.37;;;19.10;99.90;;;;;;5053958;28;20202;-53
2022/08/17 02:37:40;;;;;;;7.03;6.60;;;19.00;99.90;;;;;;5054156;28;20726;-53
2022/08/17 02:40:09;;;;;;;6.50;6.00;;;19.00;99.90;;;;;;5052575;28;20226;-53
2022/08/17 02:42:40;;;;;;;6.80;6.37;;;18.90;99.90;;;;;;5052775;28;20198;-53
2022/08/17 02:45:11;;;;;;;6.63;6.13;;;18.80;99.90;;;;;;5046481;28;20251;-53
2022/08/17 02:47:40;;;;;;;7.07;6.77;;;18.70;99.90;;;;;;5053451;28;20221;-54
2022/08/17 02:50:09;;;;;;;7.13;6.53;;;18.70;99.90;;;;;;5053841;28;20710;-53
2022/08/17 02:52:38;;;;;;;7.53;7.03;;;18.60;99.90;;;;;;5053276;28;20267;-53
2022/08/17 02:55:06;;;;;;;7.77;7.17;;;18.50;99.90;;;;;;5052774;28;20285;-53
2022/08/17 02:57:33;;;;;;;7.13;6.73;;;18.50;99.90;;;;;;5053971;28;20202;-53
2022/08/17 03:00:00;;;;;;;7.03;6.67;;;18.50;99.90;;;;;;5053766;28;20781;-53
2022/08/17 03:02:27;;;;;;;7.10;6.50;;;18.40;99.90;;;;;;5053907;28;20209;-53
2022/08/17 03:04:55;;;;;;;6.40;6.10;;;18.30;99.90;;;;;;5052827;28;20252;-53
2022/08/17 03:07:22;;;;;;;7.30;6.90;;;18.30;99.90;;;;;;5053503;28;20256;-53
2022/08/17 03:09:52;;;;;;;8.60;8.00;;;18.20;99.90;;;;;;5044960;28;20745;-53
2022/08/17 03:12:19;;;;;;;7.97;7.47;;;18.20;99.90;;;;;;5053527;28;20193;-53
2022/08/17 03:14:46;;;;;;;6.87;6.47;;;18.20;99.90;;;;;;5053083;28;20616;-53
2022/08/17 03:17:13;;;;;;;7.70;7.07;;;18.10;99.90;;;;;;5053403;28;20206;-53
2022/08/17 03:19:40;;;;;;;7.33;6.70;;;18.10;99.90;;;;;;5050880;28;20205;-53
2022/08/17 03:22:09;;;;;;;7.43;6.93;;;18.20;99.90;;;;;;5053240;28;20733;-53
2022/08/17 03:24:37;;;;;;;7.10;6.67;;;18.20;99.90;;;;;;5051896;28;20573;-53
2022/08/17 03:27:04;;;;;;;7.53;7.13;;;18.20;99.90;;;;;;5053231;28;20629;-53
2022/08/17 03:29:31;;;;;;;7.63;7.03;;;18.20;99.90;;;;;;5053277;28;20284;-53
2022/08/17 03:31:58;;;;;;;7.00;6.60;;;18.20;99.90;;;;;;5052503;28;20205;-53
2022/08/17 03:34:25;;;;;;;7.93;7.27;;;18.20;99.90;;;;;;5053210;28;20200;-53
2022/08/17 03:36:52;;;;;;;7.33;6.83;;;18.20;99.90;;;;;;5053177;28;20564;-53
2022/08/17 03:39:20;;;;;;;7.27;6.77;;;18.20;99.90;;;;;;5053612;28;20663;-53
2022/08/17 03:41:47;;;;;;;7.30;6.80;;;18.20;99.90;;;;;;5053232;28;20773;-53
2022/08/17 03:44:14;;;;;;;7.70;7.13;;;18.20;99.90;;;;;;5053880;28;20613;-53
2022/08/17 03:57:40;;;;;;;6.93;6.63;;;18.40;99.90;;;;;;5050519;28;20209;-53
2022/08/17 04:00:09;;;;;;;6.37;5.97;;;18.50;99.90;;;;;;5052596;28;20229;-53
2022/08/17 04:02:36;;;;;;;7.53;6.90;;;18.60;99.90;;;;;;5052479;28;20288;-53
2022/08/17 04:05:03;;;;;;;7.87;7.17;;;18.70;99.90;;;;;;5048757;28;20210;-53
2022/08/17 04:07:31;;;;;;;9.87;9.00;;;18.70;99.90;;;;;;5052533;28;20267;-53
2022/08/17 04:10:00;;;;;;;7.70;7.30;;;18.60;99.90;;;;;;5051461;28;20695;-54
2022/08/17 04:12:29;;;;;;;7.30;6.80;;;18.60;99.90;;;;;;5052428;28;20204;-54
2022/08/17 04:14:56;;;;;;;7.70;7.23;;;18.50;99.90;;;;;;5051247;28;20213;-54
2022/08/17 04:17:25;;;;;;;6.47;6.17;;;18.40;99.90;;;;;;5052096;28;20202;-54
2022/08/17 04:19:53;;;;;;;7.33;6.77;;;18.30;99.90;;;;;;5050078;28;20222;-52
2022/08/17 04:22:20;;;;;;;8.33;7.83;;;18.30;99.90;;;;;;5047681;28;20197;-53
2022/08/17 04:24:47;;;;;;;7.07;6.50;;;18.40;99.90;;;;;;5051885;28;20225;-54
2022/08/17 04:27:16;;;;;;;7.70;7.00;;;18.40;99.90;;;;;;5050550;28;20817;-53
2022/08/17 04:29:43;;;;;;;6.40;6.10;;;18.30;99.90;;;;;;5051709;28;20225;-54
2022/08/17 04:32:10;;;;;;;6.37;6.07;;;18.40;99.90;;;;;;5052016;28;20206;-53
2022/08/17 04:34:38;;;;;;;6.07;5.67;;;18.40;99.90;;;;;;5050329;28;20214;-53
2022/08/17 04:37:06;;;;;;;6.43;6.13;;;18.40;99.90;;;;;;5048983;28;20691;-54
2022/08/17 04:39:33;;;;;;;7.40;6.77;;;18.30;99.90;;;;;;5048549;28;20207;-53
2022/08/17 04:42:05;;;;;;;7.20;6.80;;;18.30;99.90;;;;;;5045157;28;20202;-53
2022/08/17 04:44:34;;;;;;;6.00;5.50;;;18.30;99.90;;;;;;5049020;28;20293;-54
2022/08/17 04:47:01;;;;;;;7.20;6.60;;;18.20;99.90;;;;;;5048297;28;20211;-53
2022/08/17 04:49:28;;;;;;;5.70;5.40;;;18.30;99.90;;;;;;5049743;28;20260;-53
2022/08/17 04:51:57;;;;;;;6.10;5.67;;;18.40;99.90;;;;;;5040785;28;20218;-54
2022/08/17 04:54:24;;;;;;;7.83;7.23;;;18.50;99.90;;;;;;5050084;28;20575;-53
2022/08/17 04:56:51;;;;;;;6.70;6.30;;;18.60;99.90;;;;;;5045710;28;20203;-53
2022/08/17 04:59:20;;;;;;;7.53;7.03;;;18.70;99.90;;;;;;5046276;28;20190;-53
2022/08/17 05:01:50;;;;;;;8.13;7.63;;;18.80;99.90;;;;;;5043350;28;20303;-54
2022/08/17 05:04:21;;;;;;;7.50;6.83;;;18.80;99.90;;;;;;5045535;28;20198;-53
2022/08/17 05:06:50;;;;;;;6.80;6.43;;;18.90;99.90;;;;;;5048653;28;20206;-54
2022/08/17 05:09:17;;;;;;;7.43;6.93;;;19.00;99.90;;;;;;5043983;28;20721;-54
2022/08/17 05:11:45;;;;;;;7.23;6.83;;;19.10;99.90;;;;;;5044765;28;20317;-53
2022/08/17 05:14:12;;;;;;;7.83;7.23;;;19.10;99.90;;;;;;5045184;28;20256;-54
2022/08/17 05:16:39;;;;;;;7.53;7.07;;;19.20;99.90;;;;;;5048200;28;20202;-54
2022/08/17 05:19:08;;;;;;;9.90;6.50;;;19.30;99.90;;;;;;5041472;28;20194;-53
2022/08/17 05:21:35;;;;;;;11.40;6.57;;;19.80;99.90;;;;;;5048804;28;20764;-52
2022/08/17 05:24:02;;;;;;;6.87;6.57;;;20.60;99.90;;;;;;5045895;28;20216;-53
2022/08/17 05:26:29;;;;;;;6.00;5.80;;;21.40;99.90;;;;;;5041417;28;20210;-54
2022/08/17 05:28:58;;;;;;;6.10;5.70;;;22.30;99.90;;;;;;5049615;28;20233;-53
2022/08/17 05:31:26;;;;;;;6.20;5.80;;;23.00;99.90;;;;;;5050476;28;20706;-54
2022/08/17 05:33:53;;;;;;;7.33;7.00;;;23.60;99.90;;;;;;5049600;28;20225;-54
2022/08/17 05:36:22;;;;;;;7.60;7.00;;;24.10;99.90;;;;;;5046058;28;20672;-53
2022/08/17 05:38:50;;;;;;;8.03;7.63;;;24.60;99.90;;;;;;5046789;28;20198;-53
2022/08/17 05:41:17;;;;;;;9.10;8.60;;;25.00;99.90;;;;;;5048459;28;20986;-53
2022/08/17 05:43:44;;;;;;;9.50;8.90;;;25.00;99.90;;;;;;5049670;28;20568;-53
2022/08/17 05:46:18;;;;;;;7.70;7.30;;;24.80;99.90;;;;;;5050796;28;20201;-53
2022/08/17 05:48:47;;;;;;;7.70;7.30;;;25.10;99.90;;;;;;5049960;28;20221;-53
2022/08/17 05:51:41;;;;;;;8.77;8.20;;;24.50;99.90;;;;;;5049732;28;20225;-54
2022/08/17 05:54:21;;;;;;;9.40;8.90;;;23.90;99.90;;;;;;5043418;28;20197;-53
2022/08/17 05:57:03;;;;;;;9.40;8.60;;;23.30;99.90;;;;;;5054286;28;20211;-53
2022/08/17 05:59:42;;;;;;;8.07;7.47;;;22.70;99.90;;;;;;5049588;28;20600;-53
2022/08/17 06:02:21;;;;;;;8.60;8.10;;;22.30;99.90;;;;;;5053341;28;20686;-53
2022/08/17 06:05:01;;;;;;;8.50;7.90;;;21.90;99.90;;;;;;5054583;28;20240;-53
2022/08/17 06:07:37;;;;;;;8.97;8.07;;;22.00;99.90;;;;;;5053600;28;20214;-54
2022/08/17 06:10:10;;;;;;;8.53;7.83;;;21.70;99.90;;;;;;5050939;28;20351;-53
2022/08/17 06:12:48;;;;;;;7.60;7.20;;;21.60;99.90;;;;;;5054558;28;20206;-53
2022/08/17 06:15:27;;;;;;;8.77;8.07;;;21.40;99.90;;;;;;5054311;28;20688;-53
2022/08/17 06:18:01;;;;;;;7.57;7.00;;;21.30;99.90;;;;;;5054298;28;20216;-53
2022/08/17 06:20:35;;;;;;;9.53;8.67;;;21.30;99.90;;;;;;5053424;28;20233;-53
2022/08/17 06:23:10;;;;;;;8.80;8.03;;;21.30;99.90;;;;;;5046140;28;20272;-53
2022/08/17 06:25:45;;;;;;;9.53;8.73;;;21.20;99.90;;;;;;5052660;28;20201;-53
2022/08/17 06:28:19;;;;;;;8.60;7.90;;;21.20;99.90;;;;;;5053012;28;20251;-53
2022/08/17 06:30:50;;;;;;;8.47;7.87;;;21.30;99.90;;;;;;5048669;28;20222;-54
2022/08/17 06:33:22;;;;;;;9.67;8.90;;;21.40;99.90;;;;;;5053095;28;20201;-53
2022/08/17 06:36:01;;;;;;;8.80;8.20;;;21.90;99.90;;;;;;5053571;28;20209;-54
2022/08/17 06:38:40;;;;;;;8.53;7.67;;;22.80;99.90;;;;;;5053277;28;20198;-53
2022/08/17 06:41:17;;;;;;;8.17;7.20;;;22.90;99.90;;;;;;5046629;28;20236;-53
2022/08/17 06:43:56;;;;;;;8.17;7.67;;;23.10;99.90;;;;;;5050853;28;20274;-53
2022/08/17 06:46:29;;;;;;;8.93;8.17;;;23.00;99.90;;;;;;5047984;28;20255;-53
2022/08/17 06:49:24;;;;;;;7.37;7.00;;;22.70;99.90;;;;;;5052784;28;20320;-53
2022/08/17 06:51:57;;;;;;;9.30;8.27;;;22.70;99.90;;;;;;5049415;28;20313;-53
2022/08/17 06:54:33;;;;;;;8.30;7.80;;;22.70;99.90;;;;;;5052861;28;20273;-53
2022/08/17 06:57:13;;;;;;;6.87;6.47;;;22.70;99.90;;;;;;5052232;28;20205;-52
2022/08/17 06:59:47;;;;;;;7.43;7.03;;;22.50;99.90;;;;;;5050348;28;20198;-53
2022/08/17 07:02:21;;;;;;;7.30;6.77;;;22.40;99.90;;;;;;5048013;28;20212;-53
2022/08/17 07:04:49;;;;;;;7.33;6.93;;;22.50;99.90;;;;;;5052883;28;20660;-53
2022/08/17 07:10:10;;;;;;;7.03;6.60;;;22.80;99.90;;;;;;5049177;28;20610;-53
2022/08/17 07:12:41;;;;;;;9.20;8.50;;;23.90;99.90;;;;;;5045019;28;20257;-53
2022/08/17 07:15:14;;;;;;;7.67;7.27;;;25.30;99.90;;;;;;5050946;28;20198;-53
2022/08/17 07:17:41;;;;;;;8.93;8.33;;;26.70;99.90;;;;;;5047601;28;20718;-53
2022/08/17 07:20:13;;;;;;;8.60;7.10;;;28.00;99.90;;;;;;5043728;28;20218;-54
2022/08/17 07:22:49;;;;;;;7.60;6.88;;;29.20;99.90;;;;;;5044002;28;20210;-54
2022/08/17 07:25:20;;;;;;;6.45;6.05;;;30.50;99.90;;;;;;5042231;28;20221;-53
2022/08/17 07:27:51;;;;;;;7.50;7.10;;;30.90;99.90;;;;;;5048704;28;20213;-54
2022/08/17 07:30:21;;;;;;;8.13;7.60;;;30.50;99.90;;;;;;5049876;28;20225;-53
2022/08/17 07:32:53;;;;;;;8.38;7.68;;;30.10;99.90;;;;;;5051735;28;20202;-54
2022/08/17 07:35:30;;;;;;;6.60;6.13;;;30.20;99.90;;;;;;5050302;28;20201;-54
2022/08/17 07:38:10;;;;;;;6.60;6.20;;;30.80;99.90;;;;;;5050352;28;20208;-54
2022/08/17 07:40:40;;;;;;;7.43;6.93;;;30.90;99.90;;;;;;5048867;28;20267;-53
2022/08/17 07:43:20;;;;;;;7.75;7.25;;;30.20;99.90;;;;;;5051268;28;20667;-54
2022/08/17 07:49:24;;;;;;;8.13;7.63;;;31.30;99.90;;;;;;4962744;28;20568;-53
2022/08/17 07:51:58;;;;;;;7.00;6.50;;;30.50;99.90;;;;;;4963234;28;20232;-53
2022/08/17 07:54:30;;;;;;;6.78;6.28;;;29.80;99.90;;;;;;5026250;28;20202;-53
2022/08/17 07:57:02;;;;;;;6.97;6.53;;;29.10;99.90;;;;;;5049763;28;20193;-54
2022/08/17 07:59:31;;;;;;;6.20;5.80;;;28.40;99.90;;;;;;5048792;28;20626;-53
2022/08/17 08:02:15;;;;;;;7.28;5.72;;;27.90;99.90;;;;;;5046402;28;20295;-54
2022/08/17 08:04:45;;;;;;;6.65;6.22;;;27.50;99.90;;;;;;5045210;28;20198;-53
2022/08/17 08:07:23;;;;;;;6.20;5.80;;;27.10;99.90;;;;;;5050422;28;20213;-54
2022/08/17 08:10:02;;;;;;;6.13;5.82;;;26.70;99.90;;;;;;5051936;28;20222;-54
2022/08/17 08:12:34;;;;;;;9.27;6.30;;;27.10;99.90;;;;;;5050672;28;20288;-54
2022/08/17 08:15:10;;;;;;;6.90;6.18;;;28.20;99.90;;;;;;5049386;28;20198;-54
2022/08/17 08:17:48;;;;;;;5.97;5.60;;;28.80;99.90;;;;;;5050161;28;20280;-54
2022/08/17 08:20:16;;;;;;;6.47;5.97;;;29.60;99.90;;;;;;5048295;28;20210;-54
2022/08/17 08:22:52;;;;;;;6.28;5.38;;;29.90;99.90;;;;;;5048148;28;20205;-53
2022/08/17 08:25:25;;;;;;;5.68;5.25;;;30.40;99.90;;;;;;5044557;28;20347;-54
2022/08/17 08:28:13;;;;;;;6.03;5.53;;;30.10;99.90;;;;;;5045777;28;20197;-53
2022/08/17 08:30:46;;;;;;;6.75;6.10;;;29.60;99.90;;;;;;5048575;28;20241;-53
2022/08/17 08:33:39;;;;;;;14.20;7.00;;;28.80;99.90;;;;;;5050340;28;20204;-53
2022/08/17 08:36:20;;;;;;;5.57;5.07;;;27.90;99.90;;;;;;5047154;28;20197;-53
2022/08/17 08:38:55;;;;;;;5.50;5.00;;;27.70;99.90;;;;;;5049755;28;20725;-53
2022/08/17 08:41:37;;;;;;;5.30;5.10;;;27.50;99.90;;;;;;5050208;28;20239;-52
2022/08/17 08:44:16;;;;;;;4.85;4.63;;;27.40;99.90;;;;;;5045423;28;20201;-55
2022/08/17 08:46:53;;;;;;;4.57;4.38;;;27.40;99.90;;;;;;5049916;28;20213;-55
2022/08/17 08:49:36;;;;;;;5.03;4.70;;;27.30;99.90;;;;;;5046973;28;20217;-55
2022/08/17 08:52:09;;;;;;;18.83;7.13;;;27.10;99.90;;;;;;5042795;28;20202;-55
2022/08/17 08:54:41;;;;;;;7.90;7.00;;;26.80;99.90;;;;;;5048259;28;20201;-55
2022/08/17 08:57:18;;;;;;;20.85;7.80;;;26.80;99.90;;;;;;5045309;28;20190;-55
2022/08/17 09:00:02;;;;;;;5.53;4.97;;;26.70;99.90;;;;;;5046826;28;20209;-56
2022/08/17 09:03:10;;;;;;;5.72;5.32;;;27.10;99.90;;;;;;5050419;28;20201;-55
2022/08/17 09:05:54;;;;;;;6.50;5.63;;;27.20;99.90;;;;;;5016023;28;20202;-55
2022/08/17 09:08:30;;;;;;;6.20;5.70;;;26.90;99.90;;;;;;5050549;28;20209;-52
2022/08/17 09:11:03;;;;;;;5.68;4.47;;;27.00;99.90;;;;;;5050343;28;20669;-54
2022/08/17 09:13:43;;;;;;;5.85;5.65;;;26.80;99.90;;;;;;5045447;28;20194;-55
2022/08/17 09:16:16;;;;;;;5.93;5.53;;;26.90;99.90;;;;;;5043616;28;20658;-55
2022/08/17 09:18:50;;;;;;;5.60;5.20;;;27.80;99.90;;;;;;5041197;28;20289;-54
2022/08/17 09:21:23;;;;;;;5.45;5.05;;;28.80;99.90;;;;;;5044671;28;20279;-54
2022/08/17 09:24:01;;;;;;;6.35;5.82;;;28.60;99.90;;;;;;5045128;28;20584;-55
2022/08/17 09:26:34;;;;;;;6.25;5.80;;;28.80;99.90;;;;;;5044182;28;20279;-55
2022/08/17 09:29:16;;;;;;;6.15;5.72;;;29.20;99.90;;;;;;5047270;28;20656;-55
2022/08/17 09:31:52;;;;;;;5.63;5.30;;;30.40;99.90;;;;;;5047629;28;20715;-55
2022/08/17 09:34:27;;;;;;;5.78;5.35;;;30.80;99.90;;;;;;5047902;28;20315;-54
2022/08/17 09:37:05;;;;;;;7.82;6.20;;;31.50;99.90;;;;;;5053634;28;20209;-54
2022/08/17 09:39:39;;;;;;;5.85;5.43;;;32.50;99.90;;;;;;5048290;28;20206;-54
2022/08/17 09:42:11;;;;;;;7.10;5.65;;;32.60;99.90;;;;;;5056544;28;20197;-54
2022/08/17 09:44:42;;;;;;;5.10;4.90;;;32.80;99.40;;;;;;5053862;28;20582;-55
2022/08/17 09:47:20;;;;;;;5.63;5.32;;;33.30;99.00;;;;;;5057740;28;20217;-55
2022/08/17 09:49:52;;;;;;;5.38;4.97;;;33.60;96.60;;;;;;5055704;28;20343;-55
2022/08/17 09:52:21;;;;;;;6.13;5.65;;;33.70;96.80;;;;;;5057749;28;20200;-55
2022/08/17 09:54:50;;;;;;;6.30;6.03;;;34.00;95.90;;;;;;5041613;28;20810;-55
2022/08/17 09:57:32;;;;;;;4.97;4.78;;;33.90;95.80;;;;;;5053951;28;20229;-55
2022/08/17 10:00:20;;;;;;;5.40;5.13;;;33.50;96.60;;;;;;5054107;28;20225;-55
2022/08/17 10:03:20;;;;;;;4.47;4.28;;;33.70;95.00;;;;;;5057649;28;20252;-55
2022/08/17 10:05:56;;;;;;;5.85;5.55;;;33.90;95.80;;;;;;5056761;28;20213;-55
2022/08/17 10:08:32;;;;;;;5.22;4.93;;;33.80;95.10;;;;;;5056571;28;20621;-55
2022/08/17 10:11:10;;;;;;;5.47;5.00;;;33.80;94.80;;;;;;5055223;28;20690;-55
2022/08/17 10:13:45;;;;;;;8.52;4.78;;;33.70;94.30;;;;;;5054334;28;20202;-55
2022/08/17 10:16:21;;;;;;;4.60;4.40;;;33.50;95.90;;;;;;5054809;28;20205;-55
2022/08/17 10:19:01;;;;;;;5.60;5.22;;;33.40;94.00;;;;;;5055020;28;20686;-55
2022/08/17 10:27:11;;;;;;;4.53;4.32;;;33.90;95.10;;;;;;5052022;28;20343;-55
2022/08/17 10:29:42;;;;;;;4.70;4.55;;;34.00;95.00;;;;;;5056336;28;20194;-55
2022/08/17 10:32:13;;;;;;;5.00;4.70;;;33.80;93.70;;;;;;5056102;28;20208;-55
2022/08/17 10:35:28;;;;;;;4.82;4.70;;;33.70;94.80;;;;;;5056802;28;20293;-55
2022/08/17 10:38:36;;;;;;;4.30;4.20;;;33.30;93.90;;;;;;4976227;28;20200;-55
2022/08/17 10:41:24;;;;;;;4.35;4.25;;;33.90;94.50;;;;;;5055967;28;20320;-55
2022/08/17 10:44:04;;;;;;;5.25;4.93;;;34.30;91.80;;;;;;5057264;28;20288;-55
2022/08/17 10:46:51;;;;;;;4.70;4.50;;;33.90;92.20;;;;;;5051442;28;20201;-55
2022/08/17 10:49:29;;;;;;;4.80;4.50;;;33.30;92.00;;;;;;5039080;28;20452;-55
2022/08/17 10:51:59;;;;;;;5.38;4.97;;;32.40;92.70;;;;;;5052014;28;20260;-55
2022/08/17 10:54:46;;;;;;;4.38;4.28;;;31.80;94.60;;;;;;5053268;28;20236;-55
2022/08/17 10:57:39;;;;;;;4.50;4.30;;;31.40;95.20;;;;;;5046493;28;20202;-54
2022/08/17 11:00:11;;;;;;;5.43;5.22;;;30.80;93.90;;;;;;5046677;28;20225;-55
2022/08/17 11:02:49;;;;;;;5.30;5.00;;;30.60;96.70;;;;;;5052933;28;20202;-54
2022/08/17 11:05:39;;;;;;;4.78;4.68;;;30.40;96.30;;;;;;5050419;28;20409;-55
2022/08/17 11:08:44;;;;;;;5.13;4.75;;;29.70;95.60;;;;;;5046042;28;20228;-55
2022/08/17 11:11:37;;;;;;;5.50;5.05;;;29.50;96.70;;;;;;5052323;28;20742;-54
2022/08/17 11:14:22;;;;;;;6.15;5.65;;;29.40;97.20;;;;;;5046970;28;20284;-54
2022/08/17 11:17:11;;;;;;;5.22;5.00;;;29.50;99.50;;;;;;5050983;28;20283;-54
2022/08/17 11:20:12;;;;;;;6.43;5.55;;;29.60;98.50;;;;;;5051565;28;20210;-54
2022/08/17 11:23:20;;;;;;;4.90;4.68;;;29.50;97.90;;;;;;5048137;28;20197;-54
2022/08/17 11:25:53;;;;;;;5.28;5.07;;;29.30;99.80;;;;;;5037894;28;20595;-54
2022/08/17 11:28:24;;;;;;;5.95;5.63;;;29.20;99.10;;;;;;5052092;28;20197;-54
2022/08/17 11:30:54;;;;;;;6.00;5.78;;;29.30;99.90;;;;;;5051078;28;20688;-54
2022/08/17 11:33:52;;;;;;;5.35;5.15;;;29.10;99.60;;;;;;5052328;28;20247;-55
2022/08/17 11:36:39;;;;;;;6.82;6.22;;;29.20;99.00;;;;;;5049084;28;20655;-55
2022/08/17 11:39:23;;;;;;;6.22;5.93;;;29.10;99.90;;;;;;5045603;28;20209;-55
2022/08/17 11:41:59;;;;;;;6.03;5.43;;;28.80;99.90;;;;;;5051018;28;20630;-52
2022/08/17 11:44:43;;;;;;;5.82;5.63;;;28.20;99.90;;;;;;5052750;28;20209;-55
2022/08/17 11:54:07;;;;;;;5.70;5.30;;;28.40;99.90;;;;;;5049508;28;20263;-55
2022/08/17 11:56:44;;;;;;;7.03;6.63;;;28.70;99.90;;;;;;4965136;28;20216;-52
2022/08/17 11:59:49;;;;;;;6.85;6.22;;;28.70;99.90;;;;;;5045464;28;20255;-55
2022/08/17 12:02:44;;;;;;;6.68;6.28;;;28.70;99.90;;;;;;5050861;28;20579;-53
2022/08/17 12:05:34;;;;;;;6.20;6.00;;;28.70;99.90;;;;;;5005349;28;20575;-55
2022/08/17 12:08:20;;;;;;;5.70;5.50;;;28.80;99.90;;;;;;5051350;28;20251;-55
2022/08/17 12:11:04;;;;;;;7.03;6.65;;;28.70;99.90;;;;;;5049490;28;20268;-55
2022/08/17 12:13:41;;;;;;;6.47;6.00;;;28.80;99.90;;;;;;5051301;28;20814;-55
2022/08/17 12:16:13;;;;;;;6.57;6.20;;;28.90;99.90;;;;;;5051422;28;20259;-55
2022/08/17 12:18:48;;;;;;;5.63;5.45;;;29.00;99.90;;;;;;5050702;28;20216;-55
2022/08/17 12:21:39;;;;;;;8.32;7.82;;;29.10;99.40;;;;;;5049554;28;20267;-53
2022/08/17 12:24:18;;;;;;;6.18;5.97;;;29.20;99.90;;;;;;5044579;28;20711;-53
2022/08/17 12:26:56;;;;;;;6.75;6.22;;;29.20;99.90;;;;;;5051195;28;20259;-53
2022/08/17 12:29:25;;;;;;;6.40;6.00;;;29.10;99.90;;;;;;5051518;28;20663;-53
2022/08/17 12:31:53;;;;;;;9.90;7.55;;;28.80;99.90;;;;;;5048712;28;20640;-53
2022/08/17 12:34:23;;;;;;;5.78;5.32;;;28.60;99.90;;;;;;5051238;28;20715;-53
2022/08/17 12:36:52;;;;;;;5.57;5.18;;;28.60;99.90;;;;;;5049340;28;20792;-53
2022/08/17 12:39:22;;;;;;;5.25;4.90;;;28.60;97.90;;;;;;5052160;28;20582;-55
2022/08/17 12:41:51;;;;;;;5.65;5.40;;;28.60;98.40;;;;;;5050359;28;20267;-55
2022/08/17 12:44:21;;;;;;;6.35;5.85;;;28.80;99.90;;;;;;5050980;28;20225;-53
2022/08/17 12:46:54;;;;;;;5.78;5.50;;;29.00;99.90;;;;;;5051340;28;20202;-53
2022/08/17 12:49:29;;;;;;;7.72;5.50;;;29.10;99.90;;;;;;5050237;28;20198;-53
2022/08/17 12:52:13;;;;;;;4.85;4.63;;;29.10;99.00;;;;;;5050223;28;20282;-53
2022/08/17 12:54:46;;;;;;;28.38;9.98;;;28.90;97.30;;;;;;5051494;28;20256;-53
2022/08/17 12:57:17;;;;;;;5.38;4.93;;;28.90;98.90;;;;;;5051285;28;20201;-53
2022/08/17 12:59:48;;;;;;;5.80;5.43;;;28.90;98.50;;;;;;5049206;28;20232;-53
2022/08/17 13:02:28;;;;;;;6.18;5.65;;;28.90;99.10;;;;;;5049410;28;20198;-53
2022/08/17 13:04:57;;;;;;;5.30;4.78;;;29.00;98.50;;;;;;5049133;28;20197;-54
2022/08/17 13:07:29;;;;;;;140.70;16.38;;;29.00;97.70;;;;;;5049767;28;20660;-53
2022/08/17 13:09:56;;;;;;;7.78;5.15;;;28.80;99.40;;;;;;5050368;28;20711;-53
2022/08/17 13:12:32;;;;;;;11.73;5.45;;;28.80;98.70;;;;;;5050552;28;20221;-53
2022/08/17 13:15:00;;;;;;;476.63;59.33;;;28.80;99.10;;;;;;5050364;28;20278;-53
2022/08/17 13:17:34;;;;;;;4.32;4.10;;;28.50;99.40;;;;;;5048319;28;20259;-53
2022/08/17 13:20:04;;;;;;;16.55;6.47;;;28.40;98.50;;;;;;5043255;28;20646;-55
2022/08/17 13:22:32;;;;;;;6.28;5.15;;;28.40;97.80;;;;;;5050955;28;20279;-53
2022/08/17 13:25:04;;;;;;;4.82;4.63;;;28.40;99.10;;;;;;5046806;28;20702;-53
2022/08/17 13:27:32;;;;;;;5.85;5.45;;;28.30;99.20;;;;;;5047808;28;20253;-54
2022/08/17 13:30:02;;;;;;;6.18;5.78;;;28.40;98.80;;;;;;5050215;28;20267;-53
2022/08/17 13:32:38;;;;;;;5.72;5.35;;;28.50;99.90;;;;;;5048355;28;20221;-53
2022/08/17 13:35:44;;;;;;;5.45;5.05;;;28.50;99.90;;;;;;5047152;28;20557;-53
2022/08/17 13:38:14;;;;;;;5.57;5.28;;;28.50;99.90;;;;;;5040150;28;20288;-53
2022/08/17 13:40:58;;;;;;;4.82;4.63;;;28.40;99.90;;;;;;5049713;28;20217;-53
2022/08/17 13:43:43;;;;;;;5.72;5.53;;;28.30;99.70;;;;;;5042064;28;20247;-53
2022/08/17 13:46:16;;;;;;;4.53;4.32;;;28.30;99.40;;;;;;5049414;28;20202;-53
2022/08/17 13:48:44;;;;;;;5.45;4.95;;;28.50;99.80;;;;;;5051248;28;20206;-53